Terminal Aerodrome Forecast
Issued by NWS Twin Cities, MN

Current Version | Previous Version | Text Only | Print | Product List | Glossary On
Versions: 1 2 3 4 5 6 7 8 9 10 11 12 13 14 15 16 17
000
FTUS43 KMPX 241743
TAFSTC
TAF
KSTC 241743Z 2418/2518 08004KT P6SM BKN050
     FM242100 08008KT 1SM -SN BR OVC015
     FM242200 09008KT 1/2SM SN FG OVC007
      TEMPO 2423/2501 1/4SM +SN VV002
     FM250200 09005KT 1 1/2SM -SN BR OVC007
     FM250600 30009KT P6SM OVC015
     FM251000 28013KT P6SM SCT250=

USA.gov is the U.S. government's official web portal to all federal, state and local government web resources and services.